Time;durP1;ratioP1;P1;durP2;ratioP2;P2;SDS_P1;SDS_P2;PMS_P1;PMS_P2;Temp;Humidity;BMP_temperature;BMP_pressure;BME280_temperature;BME280_humidity;BME280_pressure;Samples;Min_cycle;Max_cycle;Signal;HPM_P1;HPM_P2
2022/05/19 00:01:39;;;;;;;1.70;0.70;;;;;;;25.30;32.82;101050.22;4166480;28;20087;-66
2022/05/19 00:03:41;;;;;;;1.25;0.90;;;;;;;25.31;32.79;101049.06;4166031;28;20477;-67
2022/05/19 00:05:45;;;;;;;1.15;0.80;;;;;;;25.21;32.63;101024.06;4165147;28;20042;-66
2022/05/19 00:07:46;;;;;;;1.27;0.90;;;;;;;25.32;33.22;101058.31;4164869;28;20443;-65
2022/05/19 00:09:52;;;;;;;0.85;0.70;;;;;;;25.24;33.32;101061.81;4166090;28;20037;-66
2022/05/19 00:11:55;;;;;;;1.52;0.93;;;;;;;25.32;32.85;101086.31;4165821;28;20080;-65
2022/05/19 00:14:00;;;;;;;1.50;0.80;;;;;;;25.31;32.59;101085.50;4165057;28;20092;-66
2022/05/19 00:16:01;;;;;;;2.65;1.23;;;;;;;25.32;33.02;101069.50;4164991;28;20037;-66
2022/05/19 00:18:03;;;;;;;1.20;0.85;;;;;;;25.31;33.10;101074.28;4164393;28;20539;-66
2022/05/19 00:20:05;;;;;;;2.08;1.00;;;;;;;25.31;33.15;101065.88;4164518;28;20103;-66
2022/05/19 00:22:12;;;;;;;2.40;0.90;;;;;;;25.05;32.93;101028.22;4163805;28;20047;-66
2022/05/19 00:24:14;;;;;;;2.42;0.88;;;;;;;25.31;32.98;101063.09;4165448;28;20469;-67
2022/05/19 00:26:16;;;;;;;1.40;0.90;;;;;;;25.30;32.82;101055.81;4164165;28;20043;-67
2022/05/19 00:28:38;;;;;;;2.63;0.80;;;;;;;25.29;32.79;101054.16;4165654;28;20033;-67
2022/05/19 00:30:43;;;;;;;2.25;0.70;;;;;;;25.30;33.19;101055.81;4149992;28;20382;-67
2022/05/19 00:32:44;;;;;;;2.55;1.00;;;;;;;25.02;32.86;101009.28;4181660;28;20550;-67
2022/05/19 00:34:45;;;;;;;1.40;0.90;;;;;;;25.30;33.15;101055.81;4181187;28;20453;-66
2022/05/19 00:36:47;;;;;;;3.55;0.93;;;;;;;25.30;32.71;101061.44;4181556;28;20033;-66
2022/05/19 00:38:48;;;;;;;1.00;0.70;;;;;;;25.30;32.94;101071.81;4181520;28;20099;-66
2022/05/19 00:40:53;;;;;;;1.30;1.00;;;;;;;25.29;33.15;101061.72;4181031;28;20102;-66
2022/05/19 00:42:54;;;;;;;1.45;0.90;;;;;;;25.27;33.15;101069.59;4181285;28;20044;-66
2022/05/19 00:44:56;;;;;;;1.20;1.00;;;;;;;25.30;33.14;101077.41;4177773;28;20107;-66
2022/05/19 00:46:58;;;;;;;1.70;0.90;;;;;;;25.22;33.23;101064.94;4180720;28;20059;-67
2022/05/19 00:49:19;;;;;;;1.40;0.57;;;;;;;25.29;32.89;101076.59;4173456;28;20095;-65
2022/05/19 00:51:43;;;;;;;1.17;0.75;;;;;;;25.18;32.99;101051.84;4164615;28;20037;-67
2022/05/19 00:53:54;;;;;;;2.78;0.82;;;;;;;25.30;33.39;101071.81;4164421;28;20107;-65
2022/05/19 00:56:00;;;;;;;2.75;0.80;;;;;;;25.29;33.27;101070.97;4163958;28;20046;-65
2022/05/19 00:58:33;;;;;;;1.35;0.90;;;;;;;25.29;33.36;101076.59;4164531;28;20037;-65
2022/05/19 01:00:47;;;;;;;4.18;0.90;;;;;;;25.23;33.03;101060.97;4165469;28;20540;-66
2022/05/19 01:02:57;;;;;;;1.30;0.98;;;;;;;25.31;33.06;101071.47;4165464;28;20469;-66
2022/05/19 01:05:18;;;;;;;2.53;0.95;;;;;;;25.27;33.01;101067.63;4164171;28;20091;-66
2022/05/19 01:07:27;;;;;;;1.52;1.00;;;;;;;25.21;33.28;101056.84;4167261;28;20095;-66
2022/05/19 01:09:34;;;;;;;1.88;1.08;;;;;;;25.30;33.30;101067.03;4180359;28;20090;-66
2022/05/19 01:11:41;;;;;;;2.05;1.05;;;;;;;25.30;33.15;101067.03;4163457;28;20072;-66
2022/05/19 01:13:44;;;;;;;1.67;0.98;;;;;;;25.28;33.51;101058.09;4180744;28;20092;-67
2022/05/19 01:15:50;;;;;;;3.75;0.93;;;;;;;25.29;33.35;101051.38;4192432;28;20098;-66
2022/05/19 01:17:51;;;;;;;2.30;1.13;;;;;;;25.17;33.65;101045.41;4196025;28;20102;-66
2022/05/19 01:19:57;;;;;;;2.38;1.00;;;;;;;25.20;33.63;101056.03;4196453;28;20098;-66
2022/05/19 01:22:13;;;;;;;1.90;1.42;;;;;;;25.24;33.67;101067.41;4197141;28;20041;-67
2022/05/19 01:24:25;;;;;;;3.17;0.75;;;;;;;25.25;33.66;101081.13;4185630;28;20046;-67
2022/05/19 01:26:37;;;;;;;3.80;0.90;;;;;;;25.27;34.04;101092.84;4167090;28;20095;-66
2022/05/19 01:28:39;;;;;;;2.17;0.90;;;;;;;25.27;33.92;101084.44;4164568;28;20178;-65
2022/05/19 01:30:44;;;;;;;4.50;1.30;;;;;;;25.26;33.91;101098.75;4164199;28;20119;-65
2022/05/19 01:32:45;;;;;;;2.95;0.85;;;;;;;25.26;34.17;101102.38;4169873;28;20045;-67
2022/05/19 01:34:47;;;;;;;1.77;0.80;;;;;;;25.26;34.28;101108.00;4169900;28;20367;-67
2022/05/19 01:36:48;;;;;;;1.02;0.85;;;;;;;25.23;34.19;101117.00;4169394;28;20179;-67
2022/05/19 01:39:07;;;;;;;1.90;0.90;;;;;;;25.25;34.25;101130.72;4169776;28;20119;-65
2022/05/19 01:41:14;;;;;;;5.03;1.75;;;;;;;25.26;34.23;101132.38;4178265;28;20418;-65
2022/05/19 01:43:41;;;;;;;1.63;0.98;;;;;;;25.25;34.37;101136.31;4169799;28;20095;-65
2022/05/19 01:46:22;;;;;;;1.73;1.10;;;;;;;25.24;34.45;101143.03;4196095;28;20110;-67
2022/05/19 01:48:30;;;;;;;4.05;1.33;;;;;;;25.26;34.23;101130.41;4171177;28;20139;-65
2022/05/19 01:50:44;;;;;;;4.30;1.50;;;;;;;25.25;34.48;101120.34;4185348;28;20094;-66
2022/05/19 01:53:01;;;;;;;3.33;1.40;;;;;;;25.26;34.34;101123.97;4186071;28;20037;-67
2022/05/19 01:55:37;;;;;;;3.90;1.85;;;;;;;25.24;34.48;101127.06;4184048;28;20087;-67
2022/05/19 01:57:55;;;;;;;6.55;1.63;;;;;;;25.26;34.33;101116.41;4144404;28;20037;-66
2022/05/19 02:00:14;;;;;;;7.03;2.13;;;;;;;25.27;34.53;101112.44;4174070;28;20111;-65
2022/05/19 02:02:28;;;;;;;12.98;2.70;;;;;;;25.28;34.50;101125.31;4186170;28;20033;-65
2022/05/19 02:04:41;;;;;;;13.68;3.60;;;;;;;25.27;34.79;101115.25;4178930;28;20450;-66
2022/05/19 02:07:07;;;;;;;10.48;3.83;;;;;;;25.24;34.79;101124.25;4185298;28;20472;-66
2022/05/19 02:09:29;;;;;;;9.88;2.90;;;;;;;25.25;34.48;101130.72;4183516;28;20044;-66
2022/05/19 02:11:43;;;;;;;7.03;2.17;;;;;;;25.26;34.75;101126.78;4182024;28;20038;-67
2022/05/19 02:13:45;;;;;;;6.60;2.20;;;;;;;25.27;34.43;101134.84;4168989;28;20107;-66
2022/05/19 02:15:51;;;;;;;7.18;2.30;;;;;;;25.25;34.29;101136.31;4175533;28;20110;-66
2022/05/19 02:17:54;;;;;;;11.55;2.10;;;;;;;25.27;34.65;101139.63;4185271;28;20144;-65
2022/05/19 02:20:03;;;;;;;8.15;2.65;;;;;;;25.25;34.46;101131.53;4178517;28;20423;-65
2022/05/19 02:22:08;;;;;;;8.40;2.65;;;;;;;25.27;34.85;101150.84;4174069;28;20053;-66
2022/05/19 02:24:15;;;;;;;11.75;3.28;;;;;;;25.28;34.68;101150.53;4173392;28;20072;-65
2022/05/19 02:26:16;;;;;;;10.70;3.00;;;;;;;25.29;34.89;101154.16;4170098;28;20037;-66
2022/05/19 02:28:37;;;;;;;13.10;3.85;;;;;;;25.10;34.98;101132.59;4171817;28;20033;-66
2022/05/19 02:30:41;;;;;;;8.50;2.90;;;;;;;25.28;35.57;101164.53;4174652;28;20099;-66
2022/05/19 02:32:43;;;;;;;8.35;3.30;;;;;;;25.27;35.36;101168.47;4171195;28;20100;-67
2022/05/19 02:34:45;;;;;;;8.30;3.42;;;;;;;25.27;35.31;101160.06;4179744;28;20480;-67
2022/05/19 02:36:47;;;;;;;11.65;3.13;;;;;;;25.29;34.98;101155.00;4186493;28;20086;-66
2022/05/19 02:38:48;;;;;;;11.70;3.53;;;;;;;25.25;35.01;101139.13;4174097;28;20049;-66
2022/05/19 02:40:50;;;;;;;9.88;3.13;;;;;;;25.29;35.14;101148.53;4154348;28;20045;-65
2022/05/19 02:42:52;;;;;;;10.32;3.33;;;;;;;25.30;35.29;101139.03;4172750;28;20041;-66
2022/05/19 02:44:53;;;;;;;5.68;3.33;;;;;;;25.29;35.35;101155.00;4175555;28;20086;-66
2022/05/19 02:46:54;;;;;;;7.57;3.38;;;;;;;25.11;35.26;101125.06;4169421;28;20041;-66
2022/05/19 02:48:59;;;;;;;16.70;3.95;;;;;;;25.30;35.74;101144.63;4167402;28;20087;-65
2022/05/19 02:51:01;;;;;;;10.75;3.33;;;;;;;25.30;35.22;101139.84;4181032;28;20036;-66
2022/05/19 02:53:05;;;;;;;11.65;3.40;;;;;;;25.31;35.42;101140.69;4183384;28;20086;-67
2022/05/19 02:55:07;;;;;;;10.38;3.65;;;;;;;25.30;35.21;101139.84;4183721;28;20436;-67
2022/05/19 02:57:09;;;;;;;6.50;3.08;;;;;;;25.31;35.28;101138.72;4175294;28;20480;-66
2022/05/19 02:59:13;;;;;;;7.72;3.30;;;;;;;25.31;35.49;101133.09;4168941;28;20042;-66
2022/05/19 03:01:17;;;;;;;9.82;3.45;;;;;;;25.32;35.28;101137.56;4167360;28;20091;-66
2022/05/19 03:03:19;;;;;;;10.75;3.40;;;;;;;25.28;35.44;101122.50;4167907;28;20111;-65
2022/05/19 03:05:23;;;;;;;13.27;3.35;;;;;;;25.32;35.59;101131.97;4193561;28;20098;-66
2022/05/19 03:07:24;;;;;;;8.85;3.08;;;;;;;25.18;35.83;101103.09;4169131;28;20087;-65
2022/05/19 03:09:26;;;;;;;7.03;3.05;;;;;;;25.32;35.44;101115.16;4152727;28;20165;-66
2022/05/19 03:11:27;;;;;;;9.20;3.30;;;;;;;25.33;35.58;101110.38;4171932;28;20468;-66
2022/05/19 03:13:29;;;;;;;11.50;3.35;;;;;;;25.32;36.05;101119.94;4183930;28;20618;-66
2022/05/19 03:15:31;;;;;;;13.82;3.55;;;;;;;25.32;35.87;101117.13;4183883;28;20063;-66
2022/05/19 03:17:32;;;;;;;9.15;3.72;;;;;;;25.32;35.47;101112.34;4167497;28;20037;-65
2022/05/19 03:19:36;;;;;;;10.68;4.05;;;;;;;25.33;35.34;101127.19;4155743;28;20483;-65
2022/05/19 03:21:37;;;;;;;8.15;3.17;;;;;;;25.32;35.63;101120.75;4177175;28;20071;-65
2022/05/19 03:23:39;;;;;;;10.20;4.10;;;;;;;25.34;35.72;101128.88;4178185;28;20098;-65
2022/05/19 03:25:43;;;;;;;12.43;3.55;;;;;;;25.34;35.85;101120.47;4154159;28;20038;-66
2022/05/19 03:27:45;;;;;;;9.63;3.20;;;;;;;25.32;35.87;101117.97;4166062;28;20045;-66
2022/05/19 03:29:50;;;;;;;9.93;3.35;;;;;;;25.34;35.68;101117.69;4166117;28;20301;-65
2022/05/19 03:31:51;;;;;;;10.07;4.03;;;;;;;25.34;35.86;101123.28;4175928;28;20041;-66
2022/05/19 03:33:56;;;;;;;7.38;3.33;;;;;;;25.24;36.04;101101.03;4198664;28;20483;-66
2022/05/19 03:35:59;;;;;;;10.55;3.83;;;;;;;25.33;36.25;101116.81;4181036;28;20049;-66
2022/05/19 03:38:03;;;;;;;6.43;3.10;;;;;;;25.25;36.10;101092.34;4148753;28;20049;-66
2022/05/19 03:40:07;;;;;;;11.90;3.58;;;;;;;25.37;35.93;101110.59;4166872;28;20049;-66
2022/05/19 03:42:13;;;;;;;11.88;3.47;;;;;;;25.35;35.93;101113.72;4158313;28;20049;-65
2022/05/19 03:44:15;;;;;;;7.03;3.20;;;;;;;25.35;36.03;101103.34;4182386;28;20052;-65
2022/05/19 03:46:16;;;;;;;7.55;3.63;;;;;;;25.35;35.93;101120.16;4163138;28;20033;-66
2022/05/19 03:48:18;;;;;;;7.85;3.28;;;;;;;25.32;36.16;101111.53;4181969;28;20061;-66
2022/05/19 03:50:22;;;;;;;8.30;3.40;;;;;;;25.35;36.05;101117.34;4182752;28;20078;-65
2022/05/19 03:52:23;;;;;;;11.45;3.75;;;;;;;25.37;36.22;101119.00;4182154;28;20037;-65
2022/05/19 03:54:25;;;;;;;8.85;3.85;;;;;;;25.35;36.36;101108.13;4172885;28;20041;-66
2022/05/19 03:56:27;;;;;;;13.70;3.97;;;;;;;25.25;36.25;101092.34;4163631;28;20068;-65
2022/05/19 03:58:28;;;;;;;11.55;3.75;;;;;;;25.32;36.48;101103.94;4169312;28;20037;-65
2022/05/19 04:00:30;;;;;;;14.00;3.63;;;;;;;25.35;36.54;101106.16;4165844;28;20477;-66
2022/05/19 04:02:32;;;;;;;9.90;3.47;;;;;;;25.35;36.62;101099.72;4166013;28;20531;-65
2022/05/19 04:04:33;;;;;;;8.70;3.65;;;;;;;25.30;36.60;101089.44;4165691;28;20095;-66
2022/05/19 04:06:35;;;;;;;8.80;4.10;;;;;;;25.31;36.37;101088.28;4165243;28;20439;-66
2022/05/19 04:08:39;;;;;;;8.25;3.30;;;;;;;25.34;36.40;101096.09;4166233;28;20041;-65
2022/05/19 04:10:44;;;;;;;12.70;4.18;;;;;;;25.22;36.43;101073.34;4166057;28;20040;-66
2022/05/19 04:12:46;;;;;;;7.85;3.55;;;;;;;25.31;36.67;101093.06;4165488;28;20103;-66
2022/05/19 04:14:48;;;;;;;9.90;3.38;;;;;;;25.35;36.25;101103.34;4165897;28;20099;-65
2022/05/19 04:16:52;;;;;;;6.72;3.33;;;;;;;25.35;36.61;101106.16;4164572;28;20459;-66
2022/05/19 04:18:54;;;;;;;7.60;3.22;;;;;;;25.33;36.47;101110.38;4147747;28;20120;-66
2022/05/19 04:20:59;;;;;;;4.55;2.83;;;;;;;25.35;36.33;101114.56;4164630;28;20041;-65
2022/05/19 04:23:01;;;;;;;8.98;3.65;;;;;;;25.35;36.39;101120.16;4147234;28;20140;-67
2022/05/19 04:25:04;;;;;;;11.18;3.45;;;;;;;25.35;36.61;101114.56;4164693;28;20099;-66
2022/05/19 04:27:06;;;;;;;10.23;3.53;;;;;;;25.35;36.40;101108.13;4164541;28;20045;-66
2022/05/19 04:29:08;;;;;;;9.65;3.75;;;;;;;25.31;36.88;101096.69;4170591;28;20109;-67
2022/05/19 04:31:09;;;;;;;7.93;3.42;;;;;;;25.33;36.71;101097.22;4165234;28;20396;-66
2022/05/19 04:33:11;;;;;;;7.97;3.83;;;;;;;25.32;36.88;101092.75;4165243;28;20107;-66
2022/05/19 04:35:13;;;;;;;7.50;3.28;;;;;;;25.33;36.50;101094.41;4165092;28;20037;-65
2022/05/19 04:37:15;;;;;;;8.40;3.63;;;;;;;25.29;36.71;101075.72;4164386;28;20103;-66
2022/05/19 04:39:16;;;;;;;7.20;3.28;;;;;;;25.31;36.69;101085.50;4147598;28;20037;-65
2022/05/19 04:41:18;;;;;;;10.75;3.88;;;;;;;25.32;36.97;101092.75;4172331;28;20041;-66
2022/05/19 04:43:22;;;;;;;9.23;3.30;;;;;;;25.32;36.83;101087.16;4180547;28;20110;-66
2022/05/19 04:45:24;;;;;;;;;;;;;;;25.30;36.77;101078.22;4180407;28;20037;-66
2022/05/19 04:47:25;;;;;;;8.80;3.60;;;;;;;25.35;36.61;101080.94;4163291;28;19916;-65
2022/05/19 04:49:30;;;;;;;7.07;2.90;;;;;;;25.37;36.72;101086.22;4174374;28;20456;-66
2022/05/19 04:51:31;;;;;;;8.25;3.20;;;;;;;25.35;36.64;101080.94;4179429;28;20106;-66
2022/05/19 04:53:33;;;;;;;8.55;3.33;;;;;;;25.34;36.80;101079.28;4170865;28;20045;-67
2022/05/19 04:55:38;;;;;;;6.75;3.40;;;;;;;25.34;37.04;101072.84;4164315;28;20464;-67
2022/05/19 04:57:43;;;;;;;6.70;3.53;;;;;;;25.32;37.09;101067.53;4164315;28;20092;-66
2022/05/19 04:59:47;;;;;;;11.55;4.05;;;;;;;25.26;37.06;101071.59;4164170;28;20103;-66
2022/05/19 05:01:49;;;;;;;9.35;3.33;;;;;;;25.24;36.77;101073.84;4164912;28;20083;-66
2022/05/19 05:03:54;;;;;;;5.05;2.88;;;;;;;25.32;37.10;101069.50;4164386;28;20037;-66
2022/05/19 05:05:58;;;;;;;7.30;3.65;;;;;;;25.31;36.96;101067.84;4162329;28;20087;-66
2022/05/19 05:07:59;;;;;;;7.37;2.93;;;;;;;25.32;37.03;101058.31;4163702;28;20088;-66
2022/05/19 05:10:00;;;;;;;9.73;3.55;;;;;;;25.31;37.13;101046.28;4164535;28;20049;-66
2022/05/19 05:12:02;;;;;;;6.28;3.20;;;;;;;25.30;36.94;101039.03;4180085;28;20431;-66
2022/05/19 05:14:04;;;;;;;9.82;3.42;;;;;;;25.32;37.00;101031.13;4180859;28;20063;-65
2022/05/19 05:16:11;;;;;;;9.48;3.40;;;;;;;25.32;37.07;101035.91;4163949;28;20037;-66
2022/05/19 05:18:13;;;;;;;11.43;2.83;;;;;;;25.30;37.25;101027.81;4179420;28;20045;-65
2022/05/19 05:20:14;;;;;;;6.55;3.20;;;;;;;25.25;37.03;101025.13;4178797;28;20037;-65
2022/05/19 05:22:15;;;;;;;6.68;2.83;;;;;;;25.31;36.84;101028.66;4181115;28;20040;-66
2022/05/19 05:24:17;;;;;;;5.82;2.72;;;;;;;25.31;37.24;101018.28;4179801;28;20064;-65
2022/05/19 05:26:19;;;;;;;7.97;3.40;;;;;;;25.32;36.95;101025.53;4178842;28;20045;-66
2022/05/19 05:28:20;;;;;;;8.88;2.75;;;;;;;25.32;37.21;101007.88;4181274;28;20452;-65
2022/05/19 05:30:21;;;;;;;7.05;3.13;;;;;;;25.32;37.16;101003.13;4180754;28;20625;-66
2022/05/19 05:32:22;;;;;;;5.85;3.00;;;;;;;25.31;37.16;101007.06;4180336;28;20541;-66
2022/05/19 05:34:24;;;;;;;10.13;3.15;;;;;;;25.30;36.95;101005.41;4181276;28;20099;-65
2022/05/19 05:36:26;;;;;;;9.05;3.22;;;;;;;25.32;36.92;101013.50;4179613;28;20468;-66
2022/05/19 05:38:27;;;;;;;9.63;3.08;;;;;;;25.30;37.53;100998.97;4180709;28;20107;-65
2022/05/19 05:40:28;;;;;;;6.80;2.90;;;;;;;25.30;37.43;100999.81;4172855;28;20022;-65
2022/05/19 05:42:30;;;;;;;8.00;2.90;;;;;;;25.24;37.38;100984.22;4163921;28;20033;-66
2022/05/19 05:44:34;;;;;;;6.90;2.83;;;;;;;25.30;37.11;100987.78;4164304;28;20064;-66
2022/05/19 05:46:36;;;;;;;6.20;3.13;;;;;;;25.28;37.09;100979.66;4163941;28;20033;-66
2022/05/19 05:48:38;;;;;;;9.30;3.55;;;;;;;25.30;37.28;100983.00;4163800;28;20041;-66
2022/05/19 05:50:44;;;;;;;6.38;3.00;;;;;;;25.22;37.26;100958.50;4164654;28;20029;-67
2022/05/19 05:52:48;;;;;;;7.25;3.22;;;;;;;25.29;37.57;100981.34;4167770;28;20037;-66
2022/05/19 05:54:49;;;;;;;6.90;2.78;;;;;;;25.29;37.50;100981.34;4180661;28;20106;-66
2022/05/19 05:56:52;;;;;;;5.35;2.40;;;;;;;25.29;37.17;100980.50;4181409;28;20033;-66
2022/05/19 05:58:53;;;;;;;7.18;2.90;;;;;;;25.30;37.52;100973.78;4180666;28;20106;-66
2022/05/19 06:00:54;;;;;;;4.43;2.67;;;;;;;25.29;37.36;100975.75;4181285;28;20044;-65
2022/05/19 06:02:56;;;;;;;5.90;2.72;;;;;;;25.29;37.63;100978.53;4180891;28;20032;-67
2022/05/19 06:04:58;;;;;;;5.20;2.88;;;;;;;25.11;37.32;100943.06;4181821;28;20037;-68
2022/05/19 06:06:59;;;;;;;6.70;3.00;;;;;;;25.30;37.23;100977.41;4181855;28;20029;-68
2022/05/19 06:09:03;;;;;;;5.25;2.65;;;;;;;25.30;37.39;100976.56;4181414;28;20041;-66
2022/05/19 06:11:08;;;;;;;10.50;2.88;;;;;;;25.29;37.75;100974.88;4180305;28;20082;-66
2022/05/19 06:13:10;;;;;;;;;;;;;;;25.28;37.65;100982.47;4181022;28;20438;-66
2022/05/19 06:15:20;;;;;;;6.82;2.78;;;;;;;25.28;37.46;100978.84;4180796;28;19920;-66
2022/05/19 06:17:21;;;;;;;8.23;2.92;;;;;;;25.33;37.49;100982.34;4174052;28;20037;-67
2022/05/19 06:19:26;;;;;;;4.78;2.30;;;;;;;25.29;37.50;100972.94;4163875;28;20473;-68
2022/05/19 06:21:30;;;;;;;7.40;2.75;;;;;;;25.28;37.89;100976.84;4167224;28;20083;-66
2022/05/19 06:23:32;;;;;;;5.18;2.60;;;;;;;25.29;37.31;100975.75;4166910;28;20100;-66
2022/05/19 06:25:37;;;;;;;6.90;2.80;;;;;;;25.31;37.60;100984.66;4166718;28;20042;-65
2022/05/19 06:27:38;;;;;;;6.00;2.72;;;;;;;25.31;37.71;100986.63;4167423;28;20045;-66
2022/05/19 06:29:40;;;;;;;6.32;2.53;;;;;;;25.26;37.59;100981.97;4167140;28;20037;-66
2022/05/19 06:31:41;;;;;;;9.07;2.60;;;;;;;25.30;37.58;100983.00;4167415;28;20045;-66
2022/05/19 06:33:42;;;;;;;5.63;2.40;;;;;;;25.30;37.77;100971.78;4166472;28;20562;-66
2022/05/19 06:35:45;;;;;;;4.57;2.70;;;;;;;25.30;37.77;100966.19;4157223;28;20091;-66
2022/05/19 06:37:46;;;;;;;4.88;2.80;;;;;;;25.29;37.94;100958.09;4182457;28;20538;-66
2022/05/19 06:39:48;;;;;;;8.18;3.17;;;;;;;25.30;37.96;100954.16;4183080;28;20041;-65
2022/05/19 06:42:02;;;;;;;5.28;2.75;;;;;;;25.30;37.81;100966.19;4165231;28;20037;-65
2022/05/19 06:44:04;;;;;;;5.78;2.53;;;;;;;25.30;37.65;100960.59;4164657;28;20041;-65
2022/05/19 06:46:05;;;;;;;6.25;2.85;;;;;;;25.30;37.80;100971.78;4182565;28;20090;-67
2022/05/19 06:48:07;;;;;;;4.97;2.58;;;;;;;25.30;37.91;100971.78;4168719;28;20144;-65
2022/05/19 06:50:09;;;;;;;5.75;2.45;;;;;;;25.30;37.95;100973.78;4166274;28;20075;-65
2022/05/19 06:52:13;;;;;;;4.55;2.38;;;;;;;25.29;37.82;100963.69;4163858;28;20041;-65
2022/05/19 06:54:15;;;;;;;5.13;2.70;;;;;;;25.29;37.94;100966.47;4167105;28;20033;-66
2022/05/19 06:56:16;;;;;;;4.32;2.45;;;;;;;25.30;37.85;100962.56;4165696;28;20095;-66
2022/05/19 06:58:17;;;;;;;4.60;2.08;;;;;;;25.30;37.97;100966.19;4166502;28;20088;-66
2022/05/19 07:00:22;;;;;;;5.00;2.58;;;;;;;25.31;37.92;100955.81;4148765;28;20038;-66
2022/05/19 07:02:25;;;;;;;4.15;2.17;;;;;;;25.30;37.95;100952.19;4166414;28;20107;-66
2022/05/19 07:04:26;;;;;;;5.95;2.60;;;;;;;25.30;37.64;100938.19;4166791;28;20420;-65
2022/05/19 07:06:28;;;;;;;5.00;2.30;;;;;;;25.29;37.87;100942.13;4165246;28;20057;-65
2022/05/19 07:08:29;;;;;;;5.88;1.98;;;;;;;25.25;37.69;100907.50;4165414;28;20037;-66
2022/05/19 07:10:33;;;;;;;4.80;2.53;;;;;;;25.26;38.09;100897.09;4166716;28;20095;-66
2022/05/19 07:12:37;;;;;;;3.95;2.45;;;;;;;25.24;37.93;100877.78;4165954;28;20160;-66
2022/05/19 07:14:40;;;;;;;3.92;2.28;;;;;;;25.25;37.74;100859.88;4166769;28;20033;-66
2022/05/19 07:16:44;;;;;;;4.38;2.70;;;;;;;25.15;37.96;100834.88;4148298;28;20041;-65
2022/05/19 07:18:45;;;;;;;4.68;2.58;;;;;;;25.29;38.03;100860.91;4165864;28;20038;-65
2022/05/19 07:20:50;;;;;;;5.05;2.40;;;;;;;25.29;38.13;100869.31;4165345;28;20115;-65
2022/05/19 07:22:51;;;;;;;4.18;2.30;;;;;;;25.23;38.03;100870.53;4165827;28;20099;-65
2022/05/19 07:24:52;;;;;;;4.03;2.33;;;;;;;25.24;38.38;100883.41;4166024;28;20033;-66
2022/05/19 07:26:55;;;;;;;5.70;2.38;;;;;;;25.28;38.26;100909.66;4166148;28;20037;-65
2022/05/19 07:28:59;;;;;;;4.88;2.00;;;;;;;25.28;38.04;100914.41;4164816;28;20453;-65
2022/05/19 07:31:01;;;;;;;5.95;2.50;;;;;;;25.28;38.18;100909.66;4165753;28;20037;-65
2022/05/19 07:33:03;;;;;;;5.18;2.67;;;;;;;25.25;38.28;100895.47;4165200;28;20435;-65
2022/05/19 07:35:06;;;;;;;4.53;2.65;;;;;;;25.29;38.28;100922.53;4165299;28;20041;-66
2022/05/19 07:37:08;;;;;;;3.83;2.70;;;;;;;25.30;38.18;100926.16;4165828;28;20030;-66
2022/05/19 07:39:11;;;;;;;5.10;2.47;;;;;;;25.27;38.24;100915.56;4165637;28;20463;-66
2022/05/19 07:41:12;;;;;;;6.35;2.85;;;;;;;25.26;38.10;100914.75;4166414;28;20026;-66
2022/05/19 07:45:33;;;;;;;2.92;1.85;;;;;;;25.27;38.29;100873.56;4166173;28;20087;-66
2022/05/19 07:47:35;;;;;;;5.82;2.90;;;;;;;25.28;38.39;100884.44;4165683;28;20029;-66
2022/05/19 07:49:56;;;;;;;4.72;2.40;;;;;;;25.27;38.37;100879.16;4165101;28;20042;-66
2022/05/19 07:51:58;;;;;;;5.63;2.45;;;;;;;25.25;38.37;100885.06;4170884;28;20049;-66
2022/05/19 07:53:59;;;;;;;3.47;2.08;;;;;;;25.26;38.26;100867.13;4182578;28;20079;-66
2022/05/19 07:56:01;;;;;;;5.53;2.47;;;;;;;25.21;38.26;100856.03;4181297;28;20044;-66
2022/05/19 07:58:07;;;;;;;5.38;2.63;;;;;;;25.25;38.14;100851.47;4182404;28;20067;-66
2022/05/19 08:00:10;;;;;;;4.60;2.17;;;;;;;25.24;38.61;100833.00;4182024;28;20436;-66
2022/05/19 08:02:12;;;;;;;6.63;2.58;;;;;;;25.24;38.24;100816.19;4181614;28;20045;-66
2022/05/19 08:04:17;;;;;;;6.90;2.83;;;;;;;25.23;38.19;100814.53;4181602;28;20102;-66
2022/05/19 08:06:19;;;;;;;4.50;2.42;;;;;;;25.22;38.62;100798.88;4181456;28;20041;-66
2022/05/19 08:08:20;;;;;;;4.72;2.35;;;;;;;25.23;38.57;100792.13;4180832;28;20045;-66
2022/05/19 08:10:24;;;;;;;6.03;2.42;;;;;;;25.23;38.43;100791.31;4181306;28;20102;-66
2022/05/19 08:17:19;;;;;;;4.57;2.40;;;;;;;25.19;38.71;100779.91;4165576;28;20087;-66
2022/05/19 08:19:24;;;;;;;3.83;2.42;;;;;;;25.20;38.83;100772.31;4164844;28;20110;-66
2022/05/19 08:21:25;;;;;;;;;;;;;;;25.18;38.73;100757.81;4165138;28;20104;-66
2022/05/19 08:23:31;;;;;;;6.00;2.47;;;;;;;25.21;38.63;100755.22;4164526;28;20424;-66
2022/05/19 08:25:33;;;;;;;5.18;3.00;;;;;;;25.17;38.78;100734.59;4165056;28;20103;-67
2022/05/19 08:27:34;;;;;;;4.80;2.20;;;;;;;24.92;38.93;100690.31;4163634;28;20429;-66
2022/05/19 08:29:36;;;;;;;3.85;2.17;;;;;;;25.20;38.56;100747.97;4164839;28;20041;-66
2022/05/19 08:31:39;;;;;;;4.13;2.28;;;;;;;25.20;38.98;100745.16;4164466;28;20057;-66
2022/05/19 08:33:43;;;;;;;4.47;2.60;;;;;;;25.20;38.65;100736.78;4164383;28;20049;-66
2022/05/19 08:35:49;;;;;;;4.65;3.00;;;;;;;25.18;38.68;100733.44;4164378;28;20053;-66
2022/05/19 08:37:50;;;;;;;3.88;2.40;;;;;;;25.17;38.79;100723.38;4164057;28;20099;-66
2022/05/19 08:39:55;;;;;;;4.63;2.10;;;;;;;25.13;39.00;100713.97;4164742;28;20488;-66
2022/05/19 08:42:02;;;;;;;4.72;2.28;;;;;;;25.19;38.65;100718.28;4164437;28;20038;-66
2022/05/19 08:44:14;;;;;;;4.82;2.78;;;;;;;25.15;38.76;100700.47;4164650;28;20033;-66
2022/05/19 08:46:27;;;;;;;5.22;2.60;;;;;;;25.12;39.11;100681.50;4147460;28;20049;-66
2022/05/19 08:48:29;;;;;;;4.20;2.63;;;;;;;25.09;38.90;100654.13;4164140;28;20448;-66
2022/05/19 08:50:39;;;;;;;3.42;1.98;;;;;;;25.20;38.86;100674.31;4164367;28;20099;-66
2022/05/19 08:52:48;;;;;;;4.07;2.38;;;;;;;25.19;38.78;100667.06;4164207;28;20068;-65
2022/05/19 08:54:53;;;;;;;4.57;2.25;;;;;;;25.20;38.72;100661.16;4165115;28;20469;-66
2022/05/19 08:57:22;;;;;;;4.95;2.38;;;;;;;25.18;38.88;100660.63;4164350;28;20439;-65
2022/05/19 09:00:11;;;;;;;4.70;2.42;;;;;;;25.13;39.09;100657.13;4165061;28;20041;-66
2022/05/19 09:02:29;;;;;;;3.83;2.03;;;;;;;25.19;39.23;100669.84;4164948;28;20140;-66
2022/05/19 09:04:57;;;;;;;5.57;2.83;;;;;;;25.17;38.75;100669.38;4164372;28;20041;-66
2022/05/19 09:10:01;;;;;;;6.60;2.33;;;;;;;25.11;39.21;100665.88;4164102;28;20079;-66
2022/05/19 09:12:08;;;;;;;4.53;2.25;;;;;;;25.19;38.93;100662.28;4164059;28;20053;-66
2022/05/19 09:14:18;;;;;;;5.18;2.50;;;;;;;25.19;38.93;100667.88;4164233;28;20045;-66
2022/05/19 09:16:29;;;;;;;2.95;2.08;;;;;;;25.16;38.84;100662.13;4164440;28;20045;-66
2022/05/19 09:18:37;;;;;;;3.28;2.03;;;;;;;25.16;39.08;100654.53;4164316;28;20049;-65
2022/05/19 09:20:53;;;;;;;3.97;2.35;;;;;;;25.15;39.25;100644.47;4164753;28;20087;-66
2022/05/19 09:23:01;;;;;;;3.15;2.00;;;;;;;25.16;39.00;100642.50;4164101;28;20049;-66
2022/05/19 09:25:14;;;;;;;4.70;2.35;;;;;;;25.15;39.35;100652.84;4163312;28;20045;-66
2022/05/19 09:27:19;;;;;;;3.15;2.10;;;;;;;25.17;39.42;100653.38;4164399;28;20079;-66
2022/05/19 09:29:22;;;;;;;;;;;;;;;25.15;39.26;100655.66;4165067;28;20037;-65
2022/05/19 09:31:42;;;;;;;4.57;2.50;;;;;;;25.09;38.93;100646.56;4164568;28;19917;-66
2022/05/19 09:33:47;;;;;;;3.70;2.10;;;;;;;25.22;39.21;100664.47;4164267;28;20038;-66
2022/05/19 09:35:55;;;;;;;4.60;2.22;;;;;;;25.20;38.83;100663.97;4164205;28;20045;-66
2022/05/19 09:38:16;;;;;;;3.60;2.15;;;;;;;25.19;38.97;100656.69;4164259;28;20492;-66
2022/05/19 09:40:26;;;;;;;4.80;2.58;;;;;;;25.21;39.06;100660.00;4164180;28;20041;-66
2022/05/19 09:42:51;;;;;;;5.07;2.30;;;;;;;25.19;38.92;100656.69;4164258;28;20064;-66
2022/05/19 09:44:57;;;;;;;4.45;2.30;;;;;;;25.20;39.25;100658.38;4162957;28;20033;-66
2022/05/19 09:47:14;;;;;;;3.90;1.90;;;;;;;25.20;39.16;100663.09;4163446;28;20469;-66
2022/05/19 09:49:25;;;;;;;4.32;1.80;;;;;;;25.20;39.42;100666.75;4163807;28;20045;-66
2022/05/19 09:51:42;;;;;;;4.20;2.58;;;;;;;25.15;39.16;100661.25;4173018;28;20033;-66
2022/05/19 09:53:59;;;;;;;3.38;2.20;;;;;;;25.16;39.18;100670.50;4181082;28;20045;-66